Time;durP1;ratioP1;P1;durP2;ratioP2;P2;SDS_P1;SDS_P2;PMS_P1;PMS_P2;Temp;Humidity;BMP_temperature;BMP_pressure;BME280_temperature;BME280_humidity;BME280_pressure;Samples;Min_cycle;Max_cycle;Signal;HPM_P1;HPM_P2
2022/08/15 00:00:33;;;;;;;12.00;7.38;;;;;;;;;;4842241;29;20057;-43
2022/08/15 00:03:02;;;;;;;4.60;3.75;;;;;;;;;;4842269;29;20050;-43
2022/08/15 00:05:36;;;;;;;6.03;3.70;;;;;;;;;;4840884;29;20045;-44
2022/08/15 00:08:07;;;;;;;7.32;4.10;;;;;;;;;;4841967;29;20049;-44
2022/08/15 00:11:03;;;;;;;4.53;3.63;;;;;;;;;;4842228;29;20467;-45
2022/08/15 00:13:56;;;;;;;7.18;4.05;;;;;;;;;;4841804;29;20410;-43
2022/08/15 00:16:32;;;;;;;7.00;3.83;;;;;;;;;;4841837;29;20049;-44
2022/08/15 00:19:10;;;;;;;6.95;3.80;;;;;;;;;;4839724;29;20498;-45
2022/08/15 00:21:43;;;;;;;10.18;4.85;;;;;;;;;;4823850;29;20038;-48
2022/08/15 00:24:18;;;;;;;5.15;3.60;;;;;;;;;;4823618;29;20129;-44
2022/08/15 00:26:56;;;;;;;4.55;3.35;;;;;;;;;;4807551;29;20470;-45
2022/08/15 00:29:26;;;;;;;5.68;3.70;;;;;;;;;;4823626;29;20042;-43
2022/08/15 00:32:07;;;;;;;8.15;3.72;;;;;;;;;;4822291;29;20073;-44
2022/08/15 00:34:55;;;;;;;6.50;3.70;;;;;;;;;;4822702;29;20077;-45
2022/08/15 00:37:22;;;;;;;5.70;3.33;;;;;;;;;;4823543;29;20117;-46
2022/08/15 00:39:49;;;;;;;7.85;4.38;;;;;;;;;;4822988;29;20067;-43
2022/08/15 00:42:23;;;;;;;4.93;3.40;;;;;;;;;;4822383;29;20047;-49
2022/08/15 00:44:56;;;;;;;6.72;3.60;;;;;;;;;;4821534;29;20047;-44
2022/08/15 00:47:40;;;;;;;6.60;4.68;;;;;;;;;;4822025;29;20077;-43
2022/08/15 00:50:13;;;;;;;6.63;3.70;;;;;;;;;;4823405;29;20046;-44
2022/08/15 00:53:06;;;;;;;5.50;2.65;;;;;;;;;;4823201;29;20050;-45
2022/08/15 00:55:38;;;;;;;5.93;4.53;;;;;;;;;;4823354;29;20072;-42
2022/08/15 00:58:06;;;;;;;4.57;3.43;;;;;;;;;;4823452;29;20095;-43
2022/08/15 01:00:56;;;;;;;4.90;3.63;;;;;;;;;;4821889;29;20411;-44
2022/08/15 01:03:32;;;;;;;5.28;3.67;;;;;;;;;;4822100;29;20123;-43
2022/08/15 01:06:22;;;;;;;3.30;2.60;;;;;;;;;;4823003;29;20125;-46
2022/08/15 01:09:01;;;;;;;4.13;3.10;;;;;;;;;;4823378;29;20078;-44
2022/08/15 01:11:44;;;;;;;5.68;3.63;;;;;;;;;;4823180;29;20054;-45
2022/08/15 01:14:12;;;;;;;7.35;4.93;;;;;;;;;;4823077;29;20051;-44
2022/08/15 01:17:00;;;;;;;4.13;3.33;;;;;;;;;;4823186;29;20042;-43
2022/08/15 01:19:35;;;;;;;4.78;3.38;;;;;;;;;;4828617;29;20502;-43
2022/08/15 01:22:08;;;;;;;5.28;3.88;;;;;;;;;;4840854;29;20061;-44
2022/08/15 01:24:51;;;;;;;4.75;3.28;;;;;;;;;;4839706;29;20083;-43
2022/08/15 01:27:46;;;;;;;4.18;3.17;;;;;;;;;;4839958;29;20046;-44
2022/08/15 01:30:23;;;;;;;7.63;3.78;;;;;;;;;;4839795;29;20050;-45
2022/08/15 01:33:11;;;;;;;5.85;3.50;;;;;;;;;;4840803;29;20415;-44
2022/08/15 01:35:42;;;;;;;4.13;3.08;;;;;;;;;;4824630;29;20054;-47
2022/08/15 01:38:36;;;;;;;5.38;3.40;;;;;;;;;;4839726;29;20050;-44
2022/08/15 01:41:38;;;;;;;8.18;3.38;;;;;;;;;;4825727;29;20477;-43
2022/08/15 01:44:28;;;;;;;5.72;3.25;;;;;;;;;;4822338;29;20058;-44
2022/08/15 01:47:11;;;;;;;3.70;2.58;;;;;;;;;;4806051;29;20115;-45
2022/08/15 01:49:46;;;;;;;5.63;2.95;;;;;;;;;;4821525;29;20050;-43
2022/08/15 01:52:32;;;;;;;4.55;3.13;;;;;;;;;;4808392;29;20419;-45
2022/08/15 01:55:26;;;;;;;4.70;3.22;;;;;;;;;;4824798;29;20070;-43
2022/08/15 01:58:05;;;;;;;5.50;3.42;;;;;;;;;;4810110;29;20046;-46
2022/08/15 02:00:35;;;;;;;7.20;4.55;;;;;;;;;;4825953;29;20055;-45
2022/08/15 02:03:09;;;;;;;5.30;3.35;;;;;;;;;;4824759;29;20129;-44
2022/08/15 02:05:39;;;;;;;6.32;4.03;;;;;;;;;;4808151;29;20598;-44
2022/08/15 02:08:06;;;;;;;6.63;3.03;;;;;;;;;;4824403;29;20046;-44
2022/08/15 02:10:53;;;;;;;4.07;3.42;;;;;;;;;;4824698;29;20133;-42
2022/08/15 02:13:20;;;;;;;4.80;3.75;;;;;;;;;;4825511;29;20122;-44
2022/08/15 02:15:52;;;;;;;7.65;4.93;;;;;;;;;;4824367;29;20042;-44
2022/08/15 02:18:20;;;;;;;5.93;4.00;;;;;;;;;;4825500;29;20047;-43
2022/08/15 02:20:51;;;;;;;6.93;4.53;;;;;;;;;;4841926;29;20489;-43
2022/08/15 02:23:19;;;;;;;7.32;4.80;;;;;;;;;;4839508;29;20057;-43
2022/08/15 02:25:51;;;;;;;6.32;3.92;;;;;;;;;;4839552;29;20472;-46
2022/08/15 02:28:23;;;;;;;5.07;3.80;;;;;;;;;;4825493;29;20099;-44
2022/08/15 02:31:10;;;;;;;5.93;3.38;;;;;;;;;;4825461;29;20408;-44
2022/08/15 02:33:41;;;;;;;4.53;3.20;;;;;;;;;;4839264;29;20065;-45
2022/08/15 02:36:13;;;;;;;7.97;4.50;;;;;;;;;;4825480;29;20046;-43
2022/08/15 02:39:07;;;;;;;5.78;3.63;;;;;;;;;;4824324;29;20050;-47
2022/08/15 02:41:42;;;;;;;6.13;3.85;;;;;;;;;;4824074;29;20106;-44
2022/08/15 02:44:14;;;;;;;6.43;3.75;;;;;;;;;;4824998;29;20415;-43
2022/08/15 02:46:56;;;;;;;5.93;3.65;;;;;;;;;;4823181;29;20046;-47
2022/08/15 02:49:31;;;;;;;8.38;3.42;;;;;;;;;;4824027;29;20224;-43
2022/08/15 02:52:17;;;;;;;7.30;3.67;;;;;;;;;;4823785;29;20479;-44
2022/08/15 02:54:50;;;;;;;;;;;;;;;;;;4825011;29;20538;-44
2022/08/15 02:57:28;;;;;;;5.10;2.65;;;;;;;;;;4839029;29;20419;-47
2022/08/15 02:59:56;;;;;;;6.03;3.30;;;;;;;;;;4825021;29;20456;-44
2022/08/15 03:02:29;;;;;;;4.45;3.22;;;;;;;;;;4838991;29;20521;-45
2022/08/15 03:05:02;;;;;;;4.15;3.30;;;;;;;;;;4823321;29;20137;-45
2022/08/15 03:07:35;;;;;;;4.00;3.13;;;;;;;;;;4838912;29;20054;-47
2022/08/15 03:10:05;;;;;;;4.93;3.15;;;;;;;;;;4838865;29;20539;-44
2022/08/15 03:12:50;;;;;;;4.82;3.55;;;;;;;;;;4823382;29;20111;-46
2022/08/15 03:15:18;;;;;;;4.82;3.47;;;;;;;;;;4823373;29;20046;-46
2022/08/15 03:17:45;;;;;;;6.18;3.50;;;;;;;;;;4824643;29;20495;-43
2022/08/15 03:20:17;;;;;;;4.72;3.55;;;;;;;;;;4826937;29;20423;-45
2022/08/15 03:22:58;;;;;;;4.13;3.10;;;;;;;;;;4820314;29;20100;-44
2022/08/15 03:25:29;;;;;;;8.18;3.28;;;;;;;;;;4816742;29;20062;-42
2022/08/15 03:27:59;;;;;;;4.40;3.13;;;;;;;;;;4788595;30;20533;-45
2022/08/15 03:30:32;;;;;;;4.30;3.05;;;;;;;;;;4802363;29;20043;-48
2022/08/15 03:32:59;;;;;;;3.78;2.90;;;;;;;;;;4802007;29;20047;-43
2022/08/15 03:35:39;;;;;;;16.65;10.15;;;;;;;;;;4788240;29;20373;-43
2022/08/15 03:38:08;;;;;;;7.88;5.07;;;;;;;;;;4801823;29;20571;-43
2022/08/15 03:40:40;;;;;;;5.05;3.55;;;;;;;;;;4802074;29;20066;-43
2022/08/15 03:43:16;;;;;;;7.20;4.20;;;;;;;;;;4788147;29;20047;-45
2022/08/15 03:45:53;;;;;;;5.25;3.50;;;;;;;;;;4786812;29;20051;-45
2022/08/15 03:48:31;;;;;;;5.22;3.17;;;;;;;;;;4801631;29;20051;-43
2022/08/15 03:51:03;;;;;;;5.15;3.53;;;;;;;;;;4801819;29;20135;-44
2022/08/15 03:53:43;;;;;;;5.40;2.88;;;;;;;;;;4801790;29;20051;-45
2022/08/15 03:56:18;;;;;;;7.57;3.30;;;;;;;;;;4801642;29;20055;-45
2022/08/15 03:58:54;;;;;;;5.30;2.80;;;;;;;;;;4801700;29;20776;-47
2022/08/15 04:01:29;;;;;;;4.50;3.65;;;;;;;;;;4801688;29;20480;-44
2022/08/15 04:04:01;;;;;;;5.88;3.85;;;;;;;;;;4801454;29;20074;-43
2022/08/15 04:06:40;;;;;;;4.28;3.05;;;;;;;;;;4801684;29;20059;-44
2022/08/15 04:09:08;;;;;;;7.40;3.88;;;;;;;;;;4801128;29;20050;-43
2022/08/15 04:11:45;;;;;;;85.45;58.08;;;;;;;;;;4801304;29;20138;-43
2022/08/15 04:14:22;;;;;;;38.67;26.23;;;;;;;;;;4800641;29;20055;-44
2022/08/15 04:17:03;;;;;;;9.88;6.38;;;;;;;;;;4801448;29;20050;-44
2022/08/15 04:19:48;;;;;;;7.80;5.88;;;;;;;;;;4809374;29;20514;-43
2022/08/15 04:22:34;;;;;;;6.97;4.97;;;;;;;;;;4819352;29;20051;-45
2022/08/15 04:25:28;;;;;;;10.20;4.88;;;;;;;;;;4792241;29;20131;-48
2022/08/15 04:28:14;;;;;;;6.60;5.03;;;;;;;;;;4819491;29;20512;-43
2022/08/15 04:31:05;;;;;;;49.03;29.17;;;;;;;;;;4819698;29;20047;-44
2022/08/15 04:33:34;;;;;;;18.13;12.02;;;;;;;;;;4819228;29;20053;-45
2022/08/15 04:36:24;;;;;;;7.60;4.05;;;;;;;;;;4804131;29;20065;-45
2022/08/15 04:39:00;;;;;;;5.57;3.80;;;;;;;;;;4819309;29;20116;-45
2022/08/15 04:41:34;;;;;;;4.65;3.63;;;;;;;;;;4804153;29;20043;-42
2022/08/15 04:44:08;;;;;;;4.20;3.08;;;;;;;;;;4804815;29;20419;-43
2022/08/15 04:46:47;;;;;;;5.40;3.17;;;;;;;;;;4802529;29;20077;-44
2022/08/15 04:49:14;;;;;;;4.10;3.17;;;;;;;;;;4818059;29;20055;-44
2022/08/15 04:51:44;;;;;;;5.95;3.75;;;;;;;;;;4819203;29;20042;-45
2022/08/15 04:54:16;;;;;;;6.20;3.95;;;;;;;;;;4818898;29;20051;-43
2022/08/15 04:56:58;;;;;;;4.50;3.30;;;;;;;;;;4818942;29;20550;-46
2022/08/15 04:59:27;;;;;;;3.85;3.30;;;;;;;;;;4819100;29;20141;-44
2022/08/15 05:02:13;;;;;;;4.80;2.88;;;;;;;;;;4819140;29;20047;-43
2022/08/15 05:05:04;;;;;;;5.03;3.15;;;;;;;;;;4819313;29;20071;-44
2022/08/15 05:07:32;;;;;;;40.72;25.20;;;;;;;;;;4804900;29;20578;-44
2022/08/15 05:10:08;;;;;;;4.53;3.38;;;;;;;;;;4803875;29;20069;-46
2022/08/15 05:12:41;;;;;;;3.92;2.97;;;;;;;;;;4818924;29;20515;-45
2022/08/15 05:15:11;;;;;;;4.78;3.20;;;;;;;;;;4804500;29;20049;-46
2022/08/15 05:17:41;;;;;;;3.40;2.45;;;;;;;;;;4803562;29;20515;-46
2022/08/15 05:20:26;;;;;;;4.05;2.75;;;;;;;;;;4818884;29;20133;-44
2022/08/15 05:22:58;;;;;;;6.03;2.80;;;;;;;;;;4818798;29;20063;-45
2022/08/15 05:25:34;;;;;;;5.75;2.75;;;;;;;;;;4805564;29;20560;-45
2022/08/15 05:28:10;;;;;;;3.92;2.60;;;;;;;;;;4807549;29;20086;-45
2022/08/15 05:31:01;;;;;;;3.97;2.70;;;;;;;;;;4822054;29;20062;-45
2022/08/15 05:33:45;;;;;;;56.05;39.63;;;;;;;;;;4822122;29;20074;-45
2022/08/15 05:36:33;;;;;;;7.68;5.65;;;;;;;;;;4822339;29;20598;-44
2022/08/15 05:39:33;;;;;;;4.07;2.50;;;;;;;;;;4822118;29;20046;-44
2022/08/15 05:42:18;;;;;;;;;;;;;;;;;;4819144;29;20126;-43
2022/08/15 05:45:15;;;;;;;3.40;2.13;;;;;;;;;;4821980;29;20262;-44
2022/08/15 05:48:21;;;;;;;6.65;2.60;;;;;;;;;;4822272;29;20119;-44
2022/08/15 05:51:13;;;;;;;;;;;;;;;;;;4807168;29;20453;-44
2022/08/15 05:54:06;;;;;;;5.07;2.30;;;;;;;;;;4821638;29;19931;-44
2022/08/15 05:57:04;;;;;;;5.22;2.78;;;;;;;;;;4808018;29;20050;-44
2022/08/15 05:59:38;;;;;;;2.83;2.22;;;;;;;;;;4818811;29;20082;-47
2022/08/15 06:02:18;;;;;;;3.40;2.47;;;;;;;;;;4821590;29;20107;-43
2022/08/15 06:05:20;;;;;;;3.30;2.20;;;;;;;;;;4807663;29;20392;-46
2022/08/15 06:08:07;;;;;;;3.33;2.47;;;;;;;;;;4808113;29;20055;-45
2022/08/15 06:11:03;;;;;;;6.13;2.58;;;;;;;;;;4821697;29;20092;-45
2022/08/15 06:13:49;;;;;;;5.10;2.10;;;;;;;;;;4821743;29;20070;-43
2022/08/15 06:16:32;;;;;;;246.88;163.57;;;;;;;;;;4821525;29;20085;-43
2022/08/15 06:19:29;;;;;;;10.48;7.03;;;;;;;;;;4825920;29;20046;-43
2022/08/15 06:22:20;;;;;;;4.07;2.53;;;;;;;;;;4825718;29;20092;-43
2022/08/15 06:25:32;;;;;;;3.78;2.40;;;;;;;;;;4839723;29;20054;-45
2022/08/15 06:28:07;;;;;;;4.00;2.25;;;;;;;;;;4839833;29;20145;-44
2022/08/15 06:31:11;;;;;;;3.22;2.33;;;;;;;;;;4839780;29;20049;-44
2022/08/15 06:33:49;;;;;;;3.85;1.80;;;;;;;;;;4839621;29;20419;-44
2022/08/15 06:36:48;;;;;;;3.97;2.13;;;;;;;;;;4824176;29;20053;-45
2022/08/15 06:39:33;;;;;;;4.38;1.95;;;;;;;;;;4839520;29;20046;-48
2022/08/15 06:42:09;;;;;;;4.93;2.45;;;;;;;;;;4824270;29;20077;-44
2022/08/15 06:44:55;;;;;;;4.75;2.22;;;;;;;;;;4839330;29;20116;-45
2022/08/15 06:47:27;;;;;;;2.90;1.73;;;;;;;;;;4825227;29;20039;-44
2022/08/15 06:50:18;;;;;;;3.80;2.20;;;;;;;;;;4825490;29;20080;-44
2022/08/15 06:52:55;;;;;;;4.13;2.55;;;;;;;;;;4825318;29;20462;-46
2022/08/15 06:55:35;;;;;;;3.10;2.10;;;;;;;;;;4823656;29;20082;-44
2022/08/15 06:58:14;;;;;;;3.83;2.28;;;;;;;;;;4825164;29;20051;-44
2022/08/15 07:01:13;;;;;;;3.38;2.40;;;;;;;;;;4825025;29;20047;-45
2022/08/15 07:03:53;;;;;;;5.25;1.95;;;;;;;;;;4825052;29;20070;-45
2022/08/15 07:06:42;;;;;;;9.35;4.55;;;;;;;;;;4839045;29;20157;-44
2022/08/15 07:09:21;;;;;;;3.83;2.72;;;;;;;;;;4839109;29;20046;-44
2022/08/15 07:12:13;;;;;;;4.30;1.85;;;;;;;;;;4838793;29;20074;-47
2022/08/15 07:15:27;;;;;;;2.78;1.60;;;;;;;;;;4825084;29;20107;-46
2022/08/15 07:18:07;;;;;;;4.35;1.90;;;;;;;;;;4823491;29;20039;-46
2022/08/15 07:20:36;;;;;;;3.70;1.70;;;;;;;;;;4806334;29;20047;-43
2022/08/15 07:23:23;;;;;;;2.08;1.40;;;;;;;;;;4802145;29;20063;-44
2022/08/15 07:25:52;;;;;;;3.08;1.42;;;;;;;;;;4802186;29;20054;-49
2022/08/15 07:28:27;;;;;;;2.40;1.40;;;;;;;;;;4802272;29;20054;-43
2022/08/15 07:30:59;;;;;;;4.43;2.05;;;;;;;;;;4802084;29;20105;-45
2022/08/15 07:33:35;;;;;;;4.95;1.80;;;;;;;;;;4802467;29;20069;-44
2022/08/15 07:36:13;;;;;;;2.10;1.20;;;;;;;;;;4788332;29;20151;-43
2022/08/15 07:38:57;;;;;;;2.40;1.30;;;;;;;;;;4788285;29;20048;-44
2022/08/15 07:41:35;;;;;;;2.90;1.23;;;;;;;;;;4788373;29;20171;-43
2022/08/15 07:44:14;;;;;;;2.92;1.20;;;;;;;;;;4801645;29;20082;-44
2022/08/15 07:47:12;;;;;;;3.42;1.30;;;;;;;;;;4800593;29;20051;-45
2022/08/15 07:49:41;;;;;;;3.92;1.20;;;;;;;;;;4800244;29;20043;-44
2022/08/15 07:52:15;;;;;;;2.35;1.40;;;;;;;;;;4804060;29;20047;-46
2022/08/15 07:55:22;;;;;;;1.80;1.25;;;;;;;;;;4814705;29;20047;-45
2022/08/15 07:58:13;;;;;;;4.07;1.30;;;;;;;;;;4805704;29;20046;-45
2022/08/15 08:01:09;;;;;;;2.67;1.33;;;;;;;;;;4819897;29;20049;-43
2022/08/15 08:04:29;;;;;;;2.05;1.27;;;;;;;;;;4805869;29;20054;-47
2022/08/15 08:07:26;;;;;;;4.38;2.53;;;;;;;;;;4804474;29;20058;-44
2022/08/15 08:10:32;;;;;;;3.60;1.40;;;;;;;;;;4819627;29;20043;-44
2022/08/15 08:13:43;;;;;;;3.67;1.23;;;;;;;;;;4819734;29;20515;-44
2022/08/15 08:16:55;;;;;;;2.30;1.42;;;;;;;;;;4818833;29;20046;-45
2022/08/15 08:19:49;;;;;;;3.55;1.20;;;;;;;;;;4800753;29;20073;-45
2022/08/15 08:23:04;;;;;;;2.33;1.48;;;;;;;;;;4837929;29;20133;-44
2022/08/15 08:26:19;;;;;;;3.63;1.58;;;;;;;;;;4835776;29;20051;-44
2022/08/15 08:28:55;;;;;;;3.50;1.40;;;;;;;;;;4837473;29;20050;-43
2022/08/15 08:32:14;;;;;;;4.03;1.38;;;;;;;;;;4837454;29;20054;-45
2022/08/15 08:35:08;;;;;;;4.40;1.67;;;;;;;;;;4823568;29;20051;-43
2022/08/15 08:38:14;;;;;;;2.38;1.40;;;;;;;;;;4823722;29;20047;-44
2022/08/15 08:41:25;;;;;;;4.78;1.48;;;;;;;;;;4822981;29;20503;-43
2022/08/15 08:44:10;;;;;;;3.35;1.80;;;;;;;;;;4823409;29;20087;-46
2022/08/15 08:47:13;;;;;;;3.35;1.58;;;;;;;;;;4823326;29;20042;-45
2022/08/15 08:50:04;;;;;;;3.58;1.70;;;;;;;;;;4823461;29;20099;-47
2022/08/15 08:52:52;;;;;;;3.05;1.30;;;;;;;;;;4822746;29;20115;-47
2022/08/15 08:55:35;;;;;;;4.70;1.70;;;;;;;;;;4823243;29;20498;-44
2022/08/15 08:58:22;;;;;;;4.50;1.38;;;;;;;;;;4822901;29;20046;-45
2022/08/15 09:01:14;;;;;;;4.35;1.60;;;;;;;;;;4822995;29;20054;-44
2022/08/15 09:03:51;;;;;;;5.10;2.00;;;;;;;;;;4808953;29;20047;-48
2022/08/15 09:06:28;;;;;;;2.22;1.20;;;;;;;;;;4804564;29;20046;-44
2022/08/15 09:09:13;;;;;;;8.68;1.50;;;;;;;;;;4804624;29;20598;-53
2022/08/15 09:15:00;;;;;;;2.13;1.33;;;;;;;;;;4804415;29;20070;-43
2022/08/15 09:17:44;;;;;;;3.33;1.85;;;;;;;;;;4804918;29;20165;-52
2022/08/15 09:20:34;;;;;;;2.17;1.30;;;;;;;;;;4817779;29;20050;-50
2022/08/15 09:23:10;;;;;;;4.65;1.50;;;;;;;;;;4826472;29;20061;-44
2022/08/15 09:26:01;;;;;;;2.63;1.65;;;;;;;;;;4841304;29;20532;-43
2022/08/15 09:28:31;;;;;;;4.30;1.58;;;;;;;;;;4821511;29;20098;-45
2022/08/15 09:31:20;;;;;;;2.00;1.42;;;;;;;;;;4841206;29;20078;-46
2022/08/15 09:34:09;;;;;;;5.30;1.40;;;;;;;;;;4840976;29;20406;-44
2022/08/15 09:37:11;;;;;;;3.03;1.50;;;;;;;;;;4841099;29;20094;-42
2022/08/15 09:40:03;;;;;;;5.65;1.63;;;;;;;;;;4840913;29;20050;-46
2022/08/15 09:42:56;;;;;;;3.45;1.40;;;;;;;;;;4840904;29;20046;-45
2022/08/15 09:46:03;;;;;;;2.50;1.15;;;;;;;;;;4840726;29;20102;-44
2022/08/15 09:48:56;;;;;;;2.70;1.35;;;;;;;;;;4840772;29;21981;-45
2022/08/15 09:51:48;;;;;;;4.13;1.70;;;;;;;;;;4840563;29;20057;-43
2022/08/15 09:54:24;;;;;;;4.00;1.42;;;;;;;;;;4840777;29;20049;-44
2022/08/15 09:57:23;;;;;;;2.78;1.55;;;;;;;;;;4817715;29;20038;-44
2022/08/15 09:59:57;;;;;;;4.00;1.45;;;;;;;;;;4822598;29;20049;-45
2022/08/15 10:02:37;;;;;;;26.70;19.42;;;;;;;;;;4822713;29;20388;-43
2022/08/15 10:05:22;;;;;;;12.35;7.57;;;;;;;;;;4822348;29;20050;-44
2022/08/15 10:07:54;;;;;;;5.90;1.55;;;;;;;;;;4822691;29;20091;-45
2022/08/15 10:10:44;;;;;;;4.68;1.55;;;;;;;;;;4822472;29;20054;-48
2022/08/15 10:13:45;;;;;;;2.22;1.42;;;;;;;;;;4823909;29;20074;-44
2022/08/15 10:16:52;;;;;;;6.55;1.50;;;;;;;;;;4825568;29;20042;-46
2022/08/15 10:19:38;;;;;;;4.15;1.50;;;;;;;;;;4805128;29;20061;-44
2022/08/15 10:22:25;;;;;;;2.50;1.20;;;;;;;;;;4805833;29;20057;-43
2022/08/15 10:25:17;;;;;;;3.60;1.35;;;;;;;;;;4822949;29;20057;-44
2022/08/15 10:28:05;;;;;;;3.25;1.70;;;;;;;;;;4825444;29;20137;-44
2022/08/15 10:31:00;;;;;;;1.83;1.17;;;;;;;;;;4825645;29;20046;-43
2022/08/15 10:33:28;;;;;;;31.55;17.30;;;;;;;;;;4825351;29;20135;-47
2022/08/15 10:36:14;;;;;;;4.30;2.33;;;;;;;;;;4825671;29;20050;-45
2022/08/15 10:39:31;;;;;;;2.40;1.60;;;;;;;;;;4825454;29;20054;-46
2022/08/15 10:42:17;;;;;;;2.67;1.50;;;;;;;;;;4824069;29;20051;-41
2022/08/15 10:45:11;;;;;;;2.47;1.40;;;;;;;;;;4825195;29;20091;-43
2022/08/15 10:48:12;;;;;;;3.13;1.40;;;;;;;;;;4825327;29;20042;-43
2022/08/15 10:51:30;;;;;;;3.42;1.60;;;;;;;;;;4825365;29;20077;-44
2022/08/15 10:54:17;;;;;;;2.80;1.55;;;;;;;;;;4825041;29;20058;-46
2022/08/15 10:56:45;;;;;;;3.88;1.58;;;;;;;;;;4824956;29;20078;-48
2022/08/15 10:59:43;;;;;;;1.67;1.30;;;;;;;;;;4825300;29;20527;-47
2022/08/15 11:02:38;;;;;;;2.70;1.33;;;;;;;;;;4825145;29;20049;-43
2022/08/15 11:05:26;;;;;;;6.72;1.35;;;;;;;;;;4824818;29;20602;-44
2022/08/15 11:07:55;;;;;;;2.40;1.10;;;;;;;;;;4824973;29;20103;-44
2022/08/15 11:10:29;;;;;;;1.95;1.13;;;;;;;;;;4825049;29;20083;-47
2022/08/15 11:12:59;;;;;;;;;;;;;;;;;;4824092;29;20258;-44
2022/08/15 11:15:46;;;;;;;3.22;1.17;;;;;;;;;;4824736;29;20282;-48
2022/08/15 11:18:20;;;;;;;3.72;1.23;;;;;;;;;;4823726;29;20050;-45
2022/08/15 11:20:55;;;;;;;4.63;1.60;;;;;;;;;;4840315;29;20077;-43
2022/08/15 11:23:39;;;;;;;2.83;1.40;;;;;;;;;;4842583;29;20060;-44
2022/08/15 11:26:11;;;;;;;33.97;22.10;;;;;;;;;;4842920;29;20578;-43
2022/08/15 11:28:55;;;;;;;5.80;2.50;;;;;;;;;;4842863;29;20057;-45
2022/08/15 11:31:24;;;;;;;2.35;1.33;;;;;;;;;;4842720;29;20546;-48
2022/08/15 11:34:03;;;;;;;5.45;1.45;;;;;;;;;;4842993;29;20517;-46
2022/08/15 11:36:54;;;;;;;2.47;1.45;;;;;;;;;;4842639;29;20046;-45
2022/08/15 11:39:22;;;;;;;3.63;1.45;;;;;;;;;;4842482;29;20050;-44
2022/08/15 11:41:55;;;;;;;2.78;1.50;;;;;;;;;;4842467;29;20038;-43
2022/08/15 11:44:43;;;;;;;5.97;1.83;;;;;;;;;;4840909;29;20132;-43
2022/08/15 11:47:16;;;;;;;3.22;1.58;;;;;;;;;;4823976;29;20067;-47
2022/08/15 11:49:54;;;;;;;3.80;1.70;;;;;;;;;;4824252;29;20534;-43
2022/08/15 11:52:46;;;;;;;6.43;3.20;;;;;;;;;;4824020;29;20050;-43
2022/08/15 11:55:19;;;;;;;3.60;1.85;;;;;;;;;;4823965;29;20566;-50
2022/08/15 11:58:14;;;;;;;4.28;1.60;;;;;;;;;;4822882;29;20137;-45
2022/08/15 12:00:51;;;;;;;2.40;1.58;;;;;;;;;;4824278;29;20081;-44
2022/08/15 12:03:31;;;;;;;2.75;1.30;;;;;;;;;;4824017;29;20055;-45
2022/08/15 12:06:40;;;;;;;3.28;1.48;;;;;;;;;;4824297;29;20042;-44
2022/08/15 12:09:27;;;;;;;2.80;1.65;;;;;;;;;;4823901;29;20738;-46
2022/08/15 12:12:28;;;;;;;2.50;1.70;;;;;;;;;;4823618;29;20046;-46
2022/08/15 12:15:24;;;;;;;3.83;1.60;;;;;;;;;;4823725;29;20061;-43
2022/08/15 12:18:09;;;;;;;4.15;1.90;;;;;;;;;;4823853;29;20411;-44
2022/08/15 12:20:59;;;;;;;4.63;1.60;;;;;;;;;;4840537;29;20137;-44
2022/08/15 12:23:27;;;;;;;72.28;51.55;;;;;;;;;;4841386;29;20057;-44
2022/08/15 12:26:07;;;;;;;5.18;2.47;;;;;;;;;;4834440;29;20042;-44
2022/08/15 12:28:55;;;;;;;3.10;1.25;;;;;;;;;;4823510;29;20038;-44
2022/08/15 12:31:34;;;;;;;3.33;1.45;;;;;;;;;;4823411;29;20046;-47
2022/08/15 12:34:19;;;;;;;3.45;1.77;;;;;;;;;;4823689;29;20103;-44
2022/08/15 12:36:54;;;;;;;2.97;1.55;;;;;;;;;;4822964;29;20089;-44
2022/08/15 12:39:33;;;;;;;6.15;2.85;;;;;;;;;;4823731;29;20051;-46
2022/08/15 12:42:00;;;;;;;2.25;1.35;;;;;;;;;;4823336;29;20046;-44
2022/08/15 12:44:50;;;;;;;5.05;1.58;;;;;;;;;;4823414;29;20049;-44
2022/08/15 12:47:22;;;;;;;1.85;1.10;;;;;;;;;;4822797;29;20395;-45
2022/08/15 12:50:00;;;;;;;1.77;1.33;;;;;;;;;;4822547;29;20145;-46
2022/08/15 12:52:29;;;;;;;2.45;1.10;;;;;;;;;;4822916;29;20052;-44
2022/08/15 12:54:59;;;;;;;2.85;1.50;;;;;;;;;;4823059;29;20493;-45
2022/08/15 12:57:28;;;;;;;2.75;1.42;;;;;;;;;;4823175;29;20058;-45
2022/08/15 13:00:16;;;;;;;3.95;1.30;;;;;;;;;;4822065;29;20137;-48
2022/08/15 13:03:25;;;;;;;2.03;1.30;;;;;;;;;;4822709;29;20046;-47
2022/08/15 13:06:01;;;;;;;2.80;1.10;;;;;;;;;;4821192;29;20053;-46
2022/08/15 13:08:49;;;;;;;3.63;1.80;;;;;;;;;;4821182;29;20129;-45
2022/08/15 13:11:21;;;;;;;2.97;1.50;;;;;;;;;;4802736;29;20046;-43
2022/08/15 13:13:51;;;;;;;2.28;1.23;;;;;;;;;;4816576;29;20495;-46
2022/08/15 13:16:22;;;;;;;3.03;1.27;;;;;;;;;;4819432;29;20057;-45
2022/08/15 13:19:14;;;;;;;5.72;1.33;;;;;;;;;;4825285;29;20102;-44
2022/08/15 13:24:57;;;;;;;2.00;1.08;;;;;;;;;;4840926;29;20057;-44
2022/08/15 13:27:32;;;;;;;3.25;1.00;;;;;;;;;;4841178;29;20050;-46
2022/08/15 13:30:05;;;;;;;2.25;1.30;;;;;;;;;;4841253;29;20042;-45
2022/08/15 13:32:46;;;;;;;1.55;1.10;;;;;;;;;;4841128;29;20042;-44
2022/08/15 13:35:17;;;;;;;1.38;0.88;;;;;;;;;;4840740;29;20391;-46
2022/08/15 13:37:47;;;;;;;1.60;1.10;;;;;;;;;;4841074;29;20049;-43
2022/08/15 13:40:27;;;;;;;51.03;35.43;;;;;;;;;;4841260;29;20050;-47
2022/08/15 13:43:02;;;;;;;14.32;9.52;;;;;;;;;;4840991;29;20039;-46
2022/08/15 13:45:42;;;;;;;1.50;0.90;;;;;;;;;;4839457;29;20050;-45
2022/08/15 13:48:35;;;;;;;1.70;1.02;;;;;;;;;;4843685;29;20053;-45
2022/08/15 13:51:19;;;;;;;1.45;0.82;;;;;;;;;;4844569;29;20128;-47
2022/08/15 13:54:07;;;;;;;2.25;0.90;;;;;;;;;;4844439;29;20499;-44
2022/08/15 13:56:54;;;;;;;2.83;0.95;;;;;;;;;;4844032;29;20074;-44
2022/08/15 13:59:22;;;;;;;2.67;0.95;;;;;;;;;;4844016;29;20510;-44
2022/08/15 14:01:51;;;;;;;2.28;0.93;;;;;;;;;;4844464;29;20049;-45
2022/08/15 14:04:27;;;;;;;5.65;1.00;;;;;;;;;;4843860;29;20042;-44
2022/08/15 14:06:55;;;;;;;2.95;0.98;;;;;;;;;;4844081;29;20443;-43
2022/08/15 14:09:25;;;;;;;66.32;40.65;;;;;;;;;;4844296;29;20050;-42
2022/08/15 14:12:18;;;;;;;4.68;3.20;;;;;;;;;;4826391;29;20137;-43
2022/08/15 14:14:46;;;;;;;1.48;0.80;;;;;;;;;;4825688;29;20121;-47
2022/08/15 14:17:34;;;;;;;2.08;1.20;;;;;;;;;;4825909;29;20081;-44
2022/08/15 14:20:09;;;;;;;3.00;1.30;;;;;;;;;;4826033;29;20078;-51
2022/08/15 14:22:56;;;;;;;3.03;1.08;;;;;;;;;;4825646;29;20100;-46
2022/08/15 14:25:30;;;;;;;1.25;0.80;;;;;;;;;;4825398;29;20078;-47
2022/08/15 14:28:17;;;;;;;4.10;1.15;;;;;;;;;;4825797;29;20046;-45
2022/08/15 14:30:47;;;;;;;3.10;1.25;;;;;;;;;;4825522;29;20043;-44
2022/08/15 14:33:35;;;;;;;4.68;1.35;;;;;;;;;;4825541;29;20081;-44
2022/08/15 14:36:22;;;;;;;2.92;1.17;;;;;;;;;;4825337;29;20062;-45
2022/08/15 14:39:12;;;;;;;2.95;1.48;;;;;;;;;;4823303;29;20046;-43
2022/08/15 14:41:40;;;;;;;3.75;1.13;;;;;;;;;;4823765;29;20042;-43
2022/08/15 14:44:10;;;;;;;2.65;1.00;;;;;;;;;;4824442;29;20070;-44
2022/08/15 14:47:00;;;;;;;4.15;1.33;;;;;;;;;;4825264;29;20059;-45
2022/08/15 14:49:30;;;;;;;2.90;1.00;;;;;;;;;;4824662;29;20451;-44
2022/08/15 14:52:23;;;;;;;3.38;0.93;;;;;;;;;;4823599;29;20046;-45
2022/08/15 14:54:55;;;;;;;1.58;1.00;;;;;;;;;;4825154;29;20085;-52
2022/08/15 14:57:24;;;;;;;2.92;1.00;;;;;;;;;;4819520;29;20051;-43
2022/08/15 14:59:53;;;;;;;2.85;1.10;;;;;;;;;;4823716;29;20057;-44
2022/08/15 15:02:33;;;;;;;3.35;1.00;;;;;;;;;;4823472;29;20134;-44
2022/08/15 15:05:22;;;;;;;2.72;1.10;;;;;;;;;;4823175;29;20065;-46
2022/08/15 15:08:09;;;;;;;3.47;0.90;;;;;;;;;;4823339;29;20074;-46
2022/08/15 15:10:47;;;;;;;2.00;1.05;;;;;;;;;;4823803;29;20038;-44
2022/08/15 15:13:16;;;;;;;1.90;1.05;;;;;;;;;;4823334;29;20046;-44
2022/08/15 15:15:48;;;;;;;2.05;1.20;;;;;;;;;;4824243;29;22655;-45
2022/08/15 15:18:36;;;;;;;4.65;1.10;;;;;;;;;;4824243;29;20462;-45
2022/08/15 15:21:26;;;;;;;2.30;1.10;;;;;;;;;;4804677;29;20043;-44
2022/08/15 15:23:53;;;;;;;2.47;1.00;;;;;;;;;;4803883;29;20461;-47
2022/08/15 15:26:22;;;;;;;3.17;1.20;;;;;;;;;;4804745;29;20122;-45
2022/08/15 15:29:04;;;;;;;2.17;1.05;;;;;;;;;;4804968;29;20074;-46
2022/08/15 15:31:33;;;;;;;2.80;1.00;;;;;;;;;;4805397;29;20053;-46
2022/08/15 15:34:09;;;;;;;2.13;1.08;;;;;;;;;;4806124;29;20047;-45
2022/08/15 15:36:45;;;;;;;2.72;1.00;;;;;;;;;;4806113;29;20508;-45
2022/08/15 15:39:19;;;;;;;2.70;1.20;;;;;;;;;;4805971;29;20065;-44
2022/08/15 15:42:07;;;;;;;2.50;1.20;;;;;;;;;;4820861;29;20043;-43
2022/08/15 15:44:45;;;;;;;2.33;1.45;;;;;;;;;;4824281;29;20431;-42
2022/08/15 15:47:16;;;;;;;11.20;9.73;;;;;;;;;;4824357;29;20054;-44
2022/08/15 15:49:54;;;;;;;4.72;2.33;;;;;;;;;;4824382;29;20104;-46
2022/08/15 15:52:24;;;;;;;2.70;1.30;;;;;;;;;;4824451;29;20039;-45
2022/08/15 15:55:00;;;;;;;3.03;1.25;;;;;;;;;;4824161;29;20103;-45
2022/08/15 15:57:32;;;;;;;4.65;1.23;;;;;;;;;;4824219;29;20418;-43
2022/08/15 16:00:22;;;;;;;4.28;1.80;;;;;;;;;;4824273;29;20046;-47
2022/08/15 16:02:57;;;;;;;5.85;2.42;;;;;;;;;;4824001;29;20043;-45
2022/08/15 16:05:38;;;;;;;4.70;2.10;;;;;;;;;;4824040;29;20050;-45
2022/08/15 16:08:28;;;;;;;3.67;1.98;;;;;;;;;;4824332;29;20465;-46
2022/08/15 16:11:21;;;;;;;3.70;1.77;;;;;;;;;;4823049;29;20116;-47
2022/08/15 16:13:52;;;;;;;9.23;3.67;;;;;;;;;;4824036;29;20043;-53
2022/08/15 16:16:27;;;;;;;5.68;2.63;;;;;;;;;;4823827;29;20107;-44